Superstar Express — 3FFX9 — position and weather

sailwx.info

Track history (hours):
 
Tides and Currents Weather Stations Pressure Air Temp Water Temp Dewpoint Dewpoint Depression Visibility Wind Speed Wind Dir Waves Ship Positions

Superstar Express

Operator: P & O Irish Sea

Last reported at 2018-Aug-17 23:08 UTC. Time now 2018-Aug-18 00:46 UTC.
Position N 38°12' W 030°22'.

Length 183 m; draft 11.4 m.

Type: Ship. MMSI: 351360000.

Date/timePositionNaut miles runAvg speedWind from/ knotsBaromVisibWave heightAir tempDewpointWater temp
2018-Aug-17 23:08N 38°12' W 030°22'612.0
2018-Aug-17 22:39N 38°12' W 030°15'211.4
2018-Aug-17 22:30N 38°12' W 030°13'612.4
2018-Aug-17 22:00N 38°12' W 030°05'612.1
2018-Aug-17 21:30N 38°13' W 029°57'611.8
2018-Aug-17 20:58N 38°12' W 029°49'511.7
2018-Aug-17 20:30N 38°12' W 029°42'611.9
2018-Aug-17 20:00N 38°11' W 029°35'612.0
2018-Aug-17 19:30N 38°11' W 029°27'611.7
2018-Aug-17 19:00N 38°10' W 029°20'611.6
2018-Aug-17 18:30N 38°10' W 029°12'611.7
2018-Aug-17 18:00N 38°10' W 029°05'611.8
2018-Aug-17 17:30N 38°10' W 028°57'611.4
2018-Aug-17 17:00N 38°09' W 028°50'611.5
2018-Aug-17 16:30N 38°09' W 028°43'611.3
2018-Aug-17 16:00N 38°08' W 028°36'611.4
2018-Aug-17 15:30N 38°08' W 028°29'611.2
2018-Aug-17 15:00N 38°08' W 028°21'1211.9
2018-Aug-17 14:00N 38°06' W 028°07'611.5
2018-Aug-17 13:30N 38°06' W 027°59'611.1
2018-Aug-17 13:00N 38°06' W 027°52'510.1
2018-Aug-17 12:30N 38°06' W 027°46'611.8
2018-Aug-17 12:00N 38°06' W 027°38'611.7
2018-Aug-17 11:30N 38°06' W 027°31'611.9
2018-Aug-17 11:00N 38°05' W 027°23'611.6
2018-Aug-17 10:30N 38°05' W 027°16'612.3
2018-Aug-17 10:00N 38°05' W 027°08'611.9
2018-Aug-17 09:30N 38°04' W 027°01'611.4
2018-Aug-17 08:59N 38°04' W 026°53'612.0
2018-Aug-17 08:30N 38°04' W 026°46'612.2
2018-Aug-17 08:00N 38°03' W 026°38'611.7
2018-Aug-17 07:30N 38°03' W 026°31'511.0
2018-Aug-17 07:00N 38°03' W 026°24'611.8
2018-Aug-17 06:30N 38°04' W 026°16'611.9
2018-Aug-17 06:00N 38°04' W 026°09'611.6
2018-Aug-17 05:30N 38°04' W 026°01'611.9
2018-Aug-17 05:00N 38°04' W 025°54'612.3
2018-Aug-17 04:30N 38°04' W 025°46'611.9
2018-Aug-17 04:00N 38°03' W 025°39'611.9
2018-Aug-17 03:30N 38°03' W 025°31'611.6
2018-Aug-17 03:00N 38°02' W 025°24'611.8
2018-Aug-17 02:30N 38°02' W 025°16'611.8
2018-Aug-17 02:00N 38°01' W 025°09'611.5
2018-Aug-17 01:30N 38°00' W 025°02'611.6
2018-Aug-17 01:00N 37°59' W 024°54'611.8
2018-Aug-17 00:30N 37°59' W 024°47'611.6
2018-Aug-17 00:00N 37°58' W 024°40'611.6
2018-Aug-16 23:30N 37°58' W 024°32'611.8
2018-Aug-16 23:00N 37°57' W 024°25'611.9
2018-Aug-16 22:30N 37°57' W 024°17'611.6
2018-Aug-16 22:00N 37°56' W 024°10'611.5
2018-Aug-16 21:30N 37°56' W 024°03'611.8
2018-Aug-16 21:00N 37°56' W 023°55'612.4
2018-Aug-16 20:30N 37°55' W 023°47'712.3
2018-Aug-16 19:55N 37°55' W 023°38'52511.8
2018-Aug-14 23:25N 36°46' W 012°43'511.5
2018-Aug-14 23:00N 36°46' W 012°37'1911.3
2018-Aug-14 21:21N 36°42' W 012°14'410.9
2018-Aug-14 21:00N 36°42' W 012°10'911.1
2018-Aug-14 20:12N 36°40' W 011°59'311.5
2018-Aug-14 19:55N 36°40' W 011°55'6211.2
2018-Aug-14 14:19N 36°29' W 010°38'411.3
2018-Aug-14 13:59N 36°29' W 010°33'911.0
2018-Aug-14 13:10N 36°27' W 010°22'410.8
2018-Aug-14 12:47N 36°27' W 010°17'810.9
2018-Aug-14 12:03N 36°25' W 010°08'1111.1
2018-Aug-14 11:01N 36°23' W 009°54'2011.1
2018-Aug-14 09:14N 36°18' W 009°30'311.1
2018-Aug-14 09:00N 36°18' W 009°27'611.2
2018-Aug-14 08:30N 36°17' W 009°20'611.1
2018-Aug-14 08:00N 36°16' W 009°13'2511.2
2018-Aug-14 05:48N 36°10' W 008°43'311.1
2018-Aug-14 05:30N 36°09' W 008°39'711.2
2018-Aug-14 04:52N 36°08' W 008°31'411.1
2018-Aug-14 04:30N 36°08' W 008°26'611.3
2018-Aug-14 03:57N 36°07' W 008°18'511.5
2018-Aug-14 03:30N 36°07' W 008°12'2011.4
2018-Aug-14 01:45N 36°05' W 007°47'3011.6
2018-Aug-13 23:11N 36°02' W 007°10'1411.3
2018-Aug-13 21:55N 36°01' W 006°53'611.2
2018-Aug-13 21:25N 36°01' W 006°46'910.9
2018-Aug-13 20:38N 35°60' W 006°35'1610.6
2018-Aug-13 19:09N 35°58' W 006°16'32 9.0
2018-Aug-13 15:33N 35°58' W 005°36'010.3
2018-Aug-13 15:30N 35°58' W 005°36'510.0
2018-Aug-13 15:00N 35°59' W 005°30'5 9.2
2018-Aug-13 14:30N 36°00' W 005°24'5 9.1
2018-Aug-13 14:00N 36°01' W 005°18'5 9.4
2018-Aug-13 13:30N 36°02' W 005°13'21911.0
2018-Aug-12 17:35N 36°36' W 000°44'212.2
2018-Aug-12 17:27N 36°36' W 000°42'1611.8
2018-Aug-12 16:04N 36°38' W 000°22'112.1
2018-Aug-12 16:00N 36°38' W 000°21'611.9
2018-Aug-12 15:30N 36°39' W 000°14'6811.6
2018-Aug-12 09:39N 36°48' E 001°10'210.3
2018-Aug-12 09:28N 36°49' E 001°12'610.4
2018-Aug-12 08:54N 36°50' E 001°20'510.8
2018-Aug-12 08:25N 36°50' E 001°26'611.3
2018-Aug-12 07:55N 36°51' E 001°33'511.5
2018-Aug-12 07:29N 36°51' E 001°39'611.6
2018-Aug-12 06:59N 36°52' E 001°46'611.6
2018-Aug-12 06:28N 36°53' E 001°54'611.8
2018-Aug-12 05:58N 36°54' E 002°01'2111.7
2018-Aug-12 04:08N 36°57' E 002°28'311.2
2018-Aug-12 03:54N 36°57' E 002°31'1411.2
2018-Aug-12 02:40N 36°59' E 002°48'511.6
2018-Aug-12 02:13N 36°60' E 002°54'611.9
2018-Aug-12 01:44N 37°01' E 003°02'512.2
2018-Aug-12 01:18N 37°01' E 003°08'43811.7
2018-Aug-10 11:45N 37°01' E 012°17'311.6
2018-Aug-10 11:29N 36°59' E 012°20'611.7
2018-Aug-10 11:00N 36°56' E 012°26'611.7
2018-Aug-10 10:30N 36°53' E 012°32'611.5
2018-Aug-10 10:00N 36°51' E 012°39'611.4
2018-Aug-10 09:30N 36°48' E 012°45'611.6
2018-Aug-10 09:00N 36°45' E 012°51'711.6
2018-Aug-10 08:25N 36°42' E 012°59'1911.3
2018-Aug-10 06:45N 36°34' E 013°20'410.6
2018-Aug-10 06:25N 36°32' E 013°24'510.6
2018-Aug-10 05:57N 36°29' E 013°29'510.6
2018-Aug-10 05:29N 36°27' E 013°34'610.7
2018-Aug-10 04:57N 36°24' E 013°41'510.9
2018-Aug-10 04:29N 36°22' E 013°46'510.9
2018-Aug-10 04:00N 36°20' E 013°52'511.0
2018-Aug-10 03:30N 36°17' E 013°58'611.2
2018-Aug-10 03:00N 36°15' E 014°04'611.6
2018-Aug-10 02:30N 36°12' E 014°11'611.8
2018-Aug-10 02:00N 36°09' E 014°17'611.9
2018-Aug-10 01:30N 36°06' E 014°23'611.9
2018-Aug-10 01:00N 36°03' E 014°30'611.5
2018-Aug-10 00:30N 35°60' E 014°35'611.8
2018-Aug-10 00:00N 35°55' E 014°40'510.5
2018-Aug-09 23:30N 35°52' E 014°45'1 2.1
2018-Aug-09 22:58N 35°52' E 014°47'0 0.0
2018-Aug-09 22:28N 35°52' E 014°47'0 0.0
2018-Aug-09 21:58N 35°52' E 014°47'0 0.1
2018-Aug-09 21:28N 35°52' E 014°47'0 0.0
2018-Aug-09 20:58N 35°52' E 014°47'0 0.0
2018-Aug-09 20:22N 35°52' E 014°47'0 0.1
2018-Aug-09 19:58N 35°52' E 014°47'0 0.0
2018-Aug-09 19:28N 35°52' E 014°47'0 0.0
2018-Aug-09 18:46N 35°52' E 014°47'0 0.0
2018-Aug-09 18:28N 35°52' E 014°47'0 0.0
2018-Aug-09 17:58N 35°52' E 014°47'0 0.0
2018-Aug-09 17:13N 35°52' E 014°47'0 0.0
2018-Aug-09 16:58N 35°52' E 014°46'0 0.0
2018-Aug-09 15:52N 35°52' E 014°46'0 0.0
2018-Aug-09 15:28N 35°52' E 014°46'0 0.1
2018-Aug-09 14:58N 35°52' E 014°46'0 0.0
2018-Aug-09 14:28N 35°52' E 014°46'0 0.0
2018-Aug-09 13:58N 35°52' E 014°46'0 0.0
2018-Aug-09 13:04N 35°52' E 014°46'0 0.1
2018-Aug-09 12:55N 35°52' E 014°46'0 0.1
2018-Aug-09 12:28N 35°52' E 014°46'0 0.0
2018-Aug-09 11:55N 35°52' E 014°46'0 0.0
2018-Aug-09 11:28N 35°52' E 014°46'0 0.0
2018-Aug-09 10:40N 35°52' E 014°46'0 0.0
2018-Aug-09 10:28N 35°52' E 014°46'0 0.1
2018-Aug-09 09:58N 35°52' E 014°46'0 0.0
2018-Aug-09 09:22N 35°52' E 014°46'0 0.0
2018-Aug-09 08:49N 35°52' E 014°46'0 0.0
2018-Aug-09 08:28N 35°52' E 014°46'0 0.0
2018-Aug-09 07:55N 35°52' E 014°46'0 0.0
2018-Aug-09 07:28N 35°52' E 014°46'0 0.0
2018-Aug-09 06:58N 35°52' E 014°46'0 0.0
2018-Aug-09 06:04N 35°52' E 014°46'0 0.0
2018-Aug-09 05:37N 35°52' E 014°46'0 0.0
2018-Aug-09 05:19N 35°52' E 014°46'0 0.0
2018-Aug-09 04:58N 35°52' E 014°46'0 0.0
2018-Aug-09 04:28N 35°52' E 014°46'0 0.0
2018-Aug-09 03:49N 35°52' E 014°46'0 0.1
2018-Aug-09 02:22N 35°52' E 014°46'0 0.0
2018-Aug-08 23:13N 35°52' E 014°46'0 0.3
2018-Aug-08 22:49N 35°52' E 014°46'0 0.2
2018-Aug-08 22:25N 35°52' E 014°46'0 0.1
2018-Aug-08 21:58N 35°52' E 014°47'1 3.0
2018-Aug-08 21:29N 35°51' E 014°48'6 8.1
2018-Aug-08 20:47N 35°50' E 014°54'411.4
2018-Aug-08 20:29N 35°50' E 014°59'1311.9
2018-Aug-08 19:24N 35°50' E 015°15'  
Track history (hours):
 
Tides and Currents Weather Stations Pressure Air Temp Water Temp Dewpoint Dewpoint Depression Visibility Wind Speed Wind Dir Waves Ship Positions

Superstar Express

Operator: P & O Irish Sea

Last reported at 2018-Aug-17 23:08 UTC. Time now 2018-Aug-18 00:46 UTC.
Position N 38°12' W 030°22'.

Length 183 m; draft 11.4 m.

Type: Ship. MMSI: 351360000.

Date/timePositionNaut miles runAvg speedWind from/ knotsBaromVisibWave heightAir tempDewpointWater temp
2018-Aug-17 23:08N 38°12' W 030°22'612.0
2018-Aug-17 22:39N 38°12' W 030°15'211.4
2018-Aug-17 22:30N 38°12' W 030°13'612.4
2018-Aug-17 22:00N 38°12' W 030°05'612.1
2018-Aug-17 21:30N 38°13' W 029°57'611.8
2018-Aug-17 20:58N 38°12' W 029°49'511.7
2018-Aug-17 20:30N 38°12' W 029°42'611.9
2018-Aug-17 20:00N 38°11' W 029°35'612.0
2018-Aug-17 19:30N 38°11' W 029°27'611.7
2018-Aug-17 19:00N 38°10' W 029°20'611.6
2018-Aug-17 18:30N 38°10' W 029°12'611.7
2018-Aug-17 18:00N 38°10' W 029°05'611.8
2018-Aug-17 17:30N 38°10' W 028°57'611.4
2018-Aug-17 17:00N 38°09' W 028°50'611.5
2018-Aug-17 16:30N 38°09' W 028°43'611.3
2018-Aug-17 16:00N 38°08' W 028°36'611.4
2018-Aug-17 15:30N 38°08' W 028°29'611.2
2018-Aug-17 15:00N 38°08' W 028°21'1211.9
2018-Aug-17 14:00N 38°06' W 028°07'611.5
2018-Aug-17 13:30N 38°06' W 027°59'611.1
2018-Aug-17 13:00N 38°06' W 027°52'510.1
2018-Aug-17 12:30N 38°06' W 027°46'611.8
2018-Aug-17 12:00N 38°06' W 027°38'611.7
2018-Aug-17 11:30N 38°06' W 027°31'611.9
2018-Aug-17 11:00N 38°05' W 027°23'611.6
2018-Aug-17 10:30N 38°05' W 027°16'612.3
2018-Aug-17 10:00N 38°05' W 027°08'611.9
2018-Aug-17 09:30N 38°04' W 027°01'611.4
2018-Aug-17 08:59N 38°04' W 026°53'612.0
2018-Aug-17 08:30N 38°04' W 026°46'612.2
2018-Aug-17 08:00N 38°03' W 026°38'611.7
2018-Aug-17 07:30N 38°03' W 026°31'511.0
2018-Aug-17 07:00N 38°03' W 026°24'611.8
2018-Aug-17 06:30N 38°04' W 026°16'611.9
2018-Aug-17 06:00N 38°04' W 026°09'611.6
2018-Aug-17 05:30N 38°04' W 026°01'611.9
2018-Aug-17 05:00N 38°04' W 025°54'612.3
2018-Aug-17 04:30N 38°04' W 025°46'611.9
2018-Aug-17 04:00N 38°03' W 025°39'611.9
2018-Aug-17 03:30N 38°03' W 025°31'611.6
2018-Aug-17 03:00N 38°02' W 025°24'611.8
2018-Aug-17 02:30N 38°02' W 025°16'611.8
2018-Aug-17 02:00N 38°01' W 025°09'611.5
2018-Aug-17 01:30N 38°00' W 025°02'611.6
2018-Aug-17 01:00N 37°59' W 024°54'611.8
2018-Aug-17 00:30N 37°59' W 024°47'611.6
2018-Aug-17 00:00N 37°58' W 024°40'611.6
2018-Aug-16 23:30N 37°58' W 024°32'611.8
2018-Aug-16 23:00N 37°57' W 024°25'611.9
2018-Aug-16 22:30N 37°57' W 024°17'611.6
2018-Aug-16 22:00N 37°56' W 024°10'611.5
2018-Aug-16 21:30N 37°56' W 024°03'611.8
2018-Aug-16 21:00N 37°56' W 023°55'612.4
2018-Aug-16 20:30N 37°55' W 023°47'712.3
2018-Aug-16 19:55N 37°55' W 023°38'52511.8
2018-Aug-14 23:25N 36°46' W 012°43'511.5
2018-Aug-14 23:00N 36°46' W 012°37'1911.3
2018-Aug-14 21:21N 36°42' W 012°14'410.9
2018-Aug-14 21:00N 36°42' W 012°10'911.1
2018-Aug-14 20:12N 36°40' W 011°59'311.5
2018-Aug-14 19:55N 36°40' W 011°55'6211.2
2018-Aug-14 14:19N 36°29' W 010°38'411.3
2018-Aug-14 13:59N 36°29' W 010°33'911.0
2018-Aug-14 13:10N 36°27' W 010°22'410.8
2018-Aug-14 12:47N 36°27' W 010°17'810.9
2018-Aug-14 12:03N 36°25' W 010°08'1111.1
2018-Aug-14 11:01N 36°23' W 009°54'2011.1
2018-Aug-14 09:14N 36°18' W 009°30'311.1
2018-Aug-14 09:00N 36°18' W 009°27'611.2
2018-Aug-14 08:30N 36°17' W 009°20'611.1
2018-Aug-14 08:00N 36°16' W 009°13'2511.2
2018-Aug-14 05:48N 36°10' W 008°43'311.1
2018-Aug-14 05:30N 36°09' W 008°39'711.2
2018-Aug-14 04:52N 36°08' W 008°31'411.1
2018-Aug-14 04:30N 36°08' W 008°26'611.3
2018-Aug-14 03:57N 36°07' W 008°18'511.5
2018-Aug-14 03:30N 36°07' W 008°12'2011.4
2018-Aug-14 01:45N 36°05' W 007°47'3011.6
2018-Aug-13 23:11N 36°02' W 007°10'1411.3
2018-Aug-13 21:55N 36°01' W 006°53'611.2
2018-Aug-13 21:25N 36°01' W 006°46'910.9
2018-Aug-13 20:38N 35°60' W 006°35'1610.6
2018-Aug-13 19:09N 35°58' W 006°16'32 9.0
2018-Aug-13 15:33N 35°58' W 005°36'010.3
2018-Aug-13 15:30N 35°58' W 005°36'510.0
2018-Aug-13 15:00N 35°59' W 005°30'5 9.2
2018-Aug-13 14:30N 36°00' W 005°24'5 9.1
2018-Aug-13 14:00N 36°01' W 005°18'5 9.4
2018-Aug-13 13:30N 36°02' W 005°13'21911.0
2018-Aug-12 17:35N 36°36' W 000°44'212.2
2018-Aug-12 17:27N 36°36' W 000°42'1611.8
2018-Aug-12 16:04N 36°38' W 000°22'112.1
2018-Aug-12 16:00N 36°38' W 000°21'611.9
2018-Aug-12 15:30N 36°39' W 000°14'6811.6
2018-Aug-12 09:39N 36°48' E 001°10'210.3
2018-Aug-12 09:28N 36°49' E 001°12'610.4
2018-Aug-12 08:54N 36°50' E 001°20'510.8
2018-Aug-12 08:25N 36°50' E 001°26'611.3
2018-Aug-12 07:55N 36°51' E 001°33'511.5
2018-Aug-12 07:29N 36°51' E 001°39'611.6
2018-Aug-12 06:59N 36°52' E 001°46'611.6
2018-Aug-12 06:28N 36°53' E 001°54'611.8
2018-Aug-12 05:58N 36°54' E 002°01'2111.7
2018-Aug-12 04:08N 36°57' E 002°28'311.2
2018-Aug-12 03:54N 36°57' E 002°31'1411.2
2018-Aug-12 02:40N 36°59' E 002°48'511.6
2018-Aug-12 02:13N 36°60' E 002°54'611.9
2018-Aug-12 01:44N 37°01' E 003°02'512.2
2018-Aug-12 01:18N 37°01' E 003°08'43811.7
2018-Aug-10 11:45N 37°01' E 012°17'311.6
2018-Aug-10 11:29N 36°59' E 012°20'611.7
2018-Aug-10 11:00N 36°56' E 012°26'611.7
2018-Aug-10 10:30N 36°53' E 012°32'611.5
2018-Aug-10 10:00N 36°51' E 012°39'611.4
2018-Aug-10 09:30N 36°48' E 012°45'611.6
2018-Aug-10 09:00N 36°45' E 012°51'711.6
2018-Aug-10 08:25N 36°42' E 012°59'1911.3
2018-Aug-10 06:45N 36°34' E 013°20'410.6
2018-Aug-10 06:25N 36°32' E 013°24'510.6
2018-Aug-10 05:57N 36°29' E 013°29'510.6
2018-Aug-10 05:29N 36°27' E 013°34'610.7
2018-Aug-10 04:57N 36°24' E 013°41'510.9
2018-Aug-10 04:29N 36°22' E 013°46'510.9
2018-Aug-10 04:00N 36°20' E 013°52'511.0
2018-Aug-10 03:30N 36°17' E 013°58'611.2
2018-Aug-10 03:00N 36°15' E 014°04'611.6
2018-Aug-10 02:30N 36°12' E 014°11'611.8
2018-Aug-10 02:00N 36°09' E 014°17'611.9
2018-Aug-10 01:30N 36°06' E 014°23'611.9
2018-Aug-10 01:00N 36°03' E 014°30'611.5
2018-Aug-10 00:30N 35°60' E 014°35'611.8
2018-Aug-10 00:00N 35°55' E 014°40'510.5
2018-Aug-09 23:30N 35°52' E 014°45'1 2.1
2018-Aug-09 22:58N 35°52' E 014°47'0 0.0
2018-Aug-09 22:28N 35°52' E 014°47'0 0.0
2018-Aug-09 21:58N 35°52' E 014°47'0 0.1
2018-Aug-09 21:28N 35°52' E 014°47'0 0.0
2018-Aug-09 20:58N 35°52' E 014°47'0 0.0
2018-Aug-09 20:22N 35°52' E 014°47'0 0.1
2018-Aug-09 19:58N 35°52' E 014°47'0 0.0
2018-Aug-09 19:28N 35°52' E 014°47'0 0.0
2018-Aug-09 18:46N 35°52' E 014°47'0 0.0
2018-Aug-09 18:28N 35°52' E 014°47'0 0.0
2018-Aug-09 17:58N 35°52' E 014°47'0 0.0
2018-Aug-09 17:13N 35°52' E 014°47'0 0.0
2018-Aug-09 16:58N 35°52' E 014°46'0 0.0
2018-Aug-09 15:52N 35°52' E 014°46'0 0.0
2018-Aug-09 15:28N 35°52' E 014°46'0 0.1
2018-Aug-09 14:58N 35°52' E 014°46'0 0.0
2018-Aug-09 14:28N 35°52' E 014°46'0 0.0
2018-Aug-09 13:58N 35°52' E 014°46'0 0.0
2018-Aug-09 13:04N 35°52' E 014°46'0 0.1
2018-Aug-09 12:55N 35°52' E 014°46'0 0.1
2018-Aug-09 12:28N 35°52' E 014°46'0 0.0
2018-Aug-09 11:55N 35°52' E 014°46'0 0.0
2018-Aug-09 11:28N 35°52' E 014°46'0 0.0
2018-Aug-09 10:40N 35°52' E 014°46'0 0.0
2018-Aug-09 10:28N 35°52' E 014°46'0 0.1
2018-Aug-09 09:58N 35°52' E 014°46'0 0.0
2018-Aug-09 09:22N 35°52' E 014°46'0 0.0
2018-Aug-09 08:49N 35°52' E 014°46'0 0.0
2018-Aug-09 08:28N 35°52' E 014°46'0 0.0
2018-Aug-09 07:55N 35°52' E 014°46'0 0.0
2018-Aug-09 07:28N 35°52' E 014°46'0 0.0
2018-Aug-09 06:58N 35°52' E 014°46'0 0.0
2018-Aug-09 06:04N 35°52' E 014°46'0 0.0
2018-Aug-09 05:37N 35°52' E 014°46'0 0.0
2018-Aug-09 05:19N 35°52' E 014°46'0 0.0
2018-Aug-09 04:58N 35°52' E 014°46'0 0.0
2018-Aug-09 04:28N 35°52' E 014°46'0 0.0
2018-Aug-09 03:49N 35°52' E 014°46'0 0.1
2018-Aug-09 02:22N 35°52' E 014°46'0 0.0
2018-Aug-08 23:13N 35°52' E 014°46'0 0.3
2018-Aug-08 22:49N 35°52' E 014°46'0 0.2
2018-Aug-08 22:25N 35°52' E 014°46'0 0.1
2018-Aug-08 21:58N 35°52' E 014°47'1 3.0
2018-Aug-08 21:29N 35°51' E 014°48'6 8.1
2018-Aug-08 20:47N 35°50' E 014°54'411.4
2018-Aug-08 20:29N 35°50' E 014°59'1311.9
2018-Aug-08 19:24N 35°50' E 015°15'  

Dump ship's entire track history